Time;durP1;ratioP1;P1;durP2;ratioP2;P2;SDS_P1;SDS_P2;PMS_P1;PMS_P2;Temp;Humidity;BMP_temperature;BMP_pressure;BME280_temperature;BME280_humidity;BME280_pressure;Samples;Min_cycle;Max_cycle;Signal;HPM_P1;HPM_P2
2022/05/20 00:01:09;;;;;;;32.05;26.75;;;;;;;;;;5008620;28;20190;-83
2022/05/20 00:03:35;;;;;;;31.85;26.50;;;;;;;;;;5007771;28;20105;-83
2022/05/20 00:06:10;;;;;;;30.75;25.58;;;;;;;;;;5008154;28;20127;-82
2022/05/20 00:08:41;;;;;;;37.08;27.45;;;;;;;;;;5007942;28;20054;-83
2022/05/20 00:11:11;;;;;;;34.10;27.92;;;;;;;;;;5008062;28;20110;-83
2022/05/20 00:13:49;;;;;;;35.83;28.13;;;;;;;;;;5007643;28;20429;-83
2022/05/20 00:16:19;;;;;;;34.35;27.65;;;;;;;;;;5009240;28;20054;-82
2022/05/20 00:21:50;;;;;;;36.65;28.20;;;;;;;;;;5009111;28;20501;-82
2022/05/20 00:27:13;;;;;;;36.97;27.75;;;;;;;;;;4985280;28;20129;-82
2022/05/20 00:29:39;;;;;;;35.97;28.77;;;;;;;;;;5011755;28;20054;-82
2022/05/20 00:32:09;;;;;;;38.92;28.55;;;;;;;;;;5013954;28;20429;-83
2022/05/20 00:34:36;;;;;;;33.17;28.33;;;;;;;;;;5003950;28;20058;-84
2022/05/20 00:37:10;;;;;;;35.05;29.55;;;;;;;;;;5002147;28;20058;-84
2022/05/20 00:39:37;;;;;;;36.63;28.77;;;;;;;;;;5000581;28;20069;-84
2022/05/20 00:42:17;;;;;;;35.15;29.02;;;;;;;;;;5004143;28;20057;-82
2022/05/20 00:44:43;;;;;;;38.42;28.02;;;;;;;;;;5006119;28;20058;-80
2022/05/20 00:47:11;;;;;;;34.72;28.40;;;;;;;;;;5007339;28;20458;-81
2022/05/20 00:49:38;;;;;;;35.10;28.10;;;;;;;;;;5004909;28;20080;-81
2022/05/20 00:52:08;;;;;;;34.22;27.55;;;;;;;;;;5004106;28;20057;-81
2022/05/20 00:54:38;;;;;;;35.95;28.42;;;;;;;;;;5002131;28;20057;-81
2022/05/20 00:57:06;;;;;;;33.50;26.55;;;;;;;;;;5001989;28;20153;-83
2022/05/20 00:59:36;;;;;;;31.30;25.95;;;;;;;;;;5001575;28;20134;-83
2022/05/20 01:02:04;;;;;;;34.97;26.88;;;;;;;;;;5001311;28;20114;-83
2022/05/20 01:04:33;;;;;;;33.90;26.65;;;;;;;;;;5000395;28;20394;-83
2022/05/20 01:06:59;;;;;;;35.65;27.45;;;;;;;;;;4999550;28;20050;-83
2022/05/20 01:09:27;;;;;;;37.60;27.80;;;;;;;;;;4998256;28;20050;-84
2022/05/20 01:11:53;;;;;;;37.63;27.80;;;;;;;;;;5000553;28;20129;-85
2022/05/20 01:14:21;;;;;;;42.20;29.13;;;;;;;;;;5003055;28;20141;-83
2022/05/20 01:16:47;;;;;;;40.28;27.27;;;;;;;;;;5000795;28;20201;-83
2022/05/20 01:19:18;;;;;;;35.20;28.52;;;;;;;;;;5001736;28;20085;-85
2022/05/20 01:21:45;;;;;;;39.58;28.92;;;;;;;;;;5001386;28;20497;-84
2022/05/20 01:24:13;;;;;;;39.78;28.95;;;;;;;;;;5003129;28;20073;-83
2022/05/20 01:26:39;;;;;;;41.60;29.65;;;;;;;;;;5000975;28;20137;-84
2022/05/20 01:29:07;;;;;;;43.08;28.85;;;;;;;;;;5000846;28;20081;-83
2022/05/20 01:31:33;;;;;;;39.60;29.27;;;;;;;;;;5000286;28;20054;-81
2022/05/20 01:34:00;;;;;;;44.58;30.38;;;;;;;;;;5000923;28;20088;-82
2022/05/20 01:36:26;;;;;;;39.22;30.95;;;;;;;;;;4999940;28;20054;-82
2022/05/20 01:38:53;;;;;;;40.42;30.73;;;;;;;;;;4999302;28;20060;-83
2022/05/20 01:41:25;;;;;;;44.95;32.08;;;;;;;;;;4999307;28;20144;-83
2022/05/20 01:43:58;;;;;;;42.42;30.10;;;;;;;;;;4999237;28;20068;-83
2022/05/20 01:46:31;;;;;;;40.95;30.15;;;;;;;;;;5001662;28;20153;-81
2022/05/20 01:49:03;;;;;;;40.97;30.42;;;;;;;;;;5000321;28;20082;-81
2022/05/20 01:51:32;;;;;;;39.63;29.17;;;;;;;;;;4994220;28;20083;-81
2022/05/20 01:54:02;;;;;;;43.13;30.98;;;;;;;;;;5000350;28;20131;-82
2022/05/20 01:56:33;;;;;;;39.42;30.65;;;;;;;;;;5002133;28;20479;-80
2022/05/20 01:59:02;;;;;;;41.08;32.30;;;;;;;;;;5007185;28;20106;-81
2022/05/20 02:01:31;;;;;;;44.15;31.45;;;;;;;;;;5007147;28;20061;-81
2022/05/20 02:04:00;;;;;;;44.05;31.60;;;;;;;;;;5012800;28;20045;-81
2022/05/20 02:06:28;;;;;;;40.47;31.45;;;;;;;;;;5014218;28;20054;-82
2022/05/20 02:08:58;;;;;;;46.58;33.13;;;;;;;;;;5010583;28;20137;-82
2022/05/20 02:11:27;;;;;;;44.72;32.70;;;;;;;;;;5008489;28;20046;-82
2022/05/20 02:13:57;;;;;;;44.85;32.30;;;;;;;;;;5008499;28;20168;-82
2022/05/20 02:16:28;;;;;;;44.35;32.38;;;;;;;;;;5009453;28;20483;-82
2022/05/20 02:18:57;;;;;;;47.05;32.33;;;;;;;;;;5009880;28;20417;-83
2022/05/20 02:21:27;;;;;;;46.40;33.28;;;;;;;;;;5012346;28;20082;-83
2022/05/20 02:23:55;;;;;;;44.63;33.28;;;;;;;;;;5011426;28;20579;-83
2022/05/20 02:26:23;;;;;;;46.55;34.08;;;;;;;;;;5011023;28;20081;-82
2022/05/20 02:28:52;;;;;;;45.28;33.83;;;;;;;;;;5011318;28;20050;-83
2022/05/20 02:31:23;;;;;;;41.95;33.95;;;;;;;;;;5023222;23;20102;-79
2022/05/20 02:33:50;;;;;;;50.05;35.60;;;;;;;;;;4979732;28;20059;-80
2022/05/20 02:36:22;;;;;;;48.28;35.47;;;;;;;;;;4979161;28;20102;-81
2022/05/20 02:38:48;;;;;;;47.88;35.72;;;;;;;;;;4978429;28;20050;-79
2022/05/20 02:41:14;;;;;;;47.53;36.10;;;;;;;;;;4980467;28;20050;-81
2022/05/20 02:43:41;;;;;;;49.40;37.13;;;;;;;;;;4989877;28;20093;-82
2022/05/20 02:46:08;;;;;;;48.30;36.92;;;;;;;;;;4990497;28;20091;-78
2022/05/20 02:48:36;;;;;;;53.58;37.45;;;;;;;;;;4988998;28;20057;-78
2022/05/20 02:51:02;;;;;;;53.67;36.05;;;;;;;;;;4990921;28;20071;-79
2022/05/20 02:53:28;;;;;;;54.22;37.20;;;;;;;;;;4991037;28;20089;-78
2022/05/20 02:55:55;;;;;;;54.70;37.00;;;;;;;;;;4990134;28;20107;-78
2022/05/20 03:04:12;;;;;;;52.78;38.22;;;;;;;;;;4976597;28;20054;-79
2022/05/20 03:06:39;;;;;;;50.05;37.28;;;;;;;;;;4975418;28;20134;-79
2022/05/20 03:09:06;;;;;;;51.10;36.80;;;;;;;;;;4976003;28;20141;-78
2022/05/20 03:11:33;;;;;;;54.08;37.55;;;;;;;;;;4976601;28;20058;-79
2022/05/20 03:13:59;;;;;;;47.33;35.65;;;;;;;;;;4976053;28;20141;-79
2022/05/20 03:16:26;;;;;;;48.53;35.53;;;;;;;;;;4975508;28;20137;-78
2022/05/20 03:18:54;;;;;;;52.45;37.20;;;;;;;;;;4975801;28;20493;-80
2022/05/20 03:21:20;;;;;;;54.10;38.50;;;;;;;;;;4975773;28;20051;-79
2022/05/20 03:23:46;;;;;;;51.67;38.20;;;;;;;;;;4975798;28;20521;-80
2022/05/20 03:26:15;;;;;;;50.03;36.40;;;;;;;;;;4976015;28;20082;-80
2022/05/20 03:28:42;;;;;;;47.75;36.15;;;;;;;;;;4975800;28;20062;-79
2022/05/20 03:31:09;;;;;;;46.65;35.72;;;;;;;;;;4976281;28;20144;-79
2022/05/20 03:33:36;;;;;;;52.63;35.20;;;;;;;;;;4982789;28;20053;-78
2022/05/20 03:36:04;;;;;;;50.38;35.50;;;;;;;;;;4981002;28;20123;-80
2022/05/20 03:38:30;;;;;;;48.65;35.95;;;;;;;;;;4982944;28;20094;-80
2022/05/20 03:40:56;;;;;;;48.47;36.20;;;;;;;;;;4978359;28;20470;-80
2022/05/20 03:43:23;;;;;;;48.08;35.67;;;;;;;;;;4976718;28;20086;-78
2022/05/20 03:45:49;;;;;;;53.45;36.97;;;;;;;;;;4974532;28;20129;-77
2022/05/20 03:48:15;;;;;;;52.25;37.42;;;;;;;;;;4974250;28;20065;-77
2022/05/20 03:50:42;;;;;;;53.13;36.47;;;;;;;;;;4974736;28;20051;-78
2022/05/20 03:53:10;;;;;;;48.92;36.72;;;;;;;;;;4974450;28;20086;-77
2022/05/20 03:55:37;;;;;;;47.55;36.10;;;;;;;;;;4974249;28;20105;-78
2022/05/20 03:58:03;;;;;;;57.67;38.78;;;;;;;;;;4974439;28;20050;-78
2022/05/20 04:00:30;;;;;;;48.13;37.42;;;;;;;;;;4974537;28;20047;-78
2022/05/20 04:02:55;;;;;;;51.70;37.92;;;;;;;;;;4974658;28;20054;-78
2022/05/20 04:05:22;;;;;;;56.15;38.22;;;;;;;;;;4974880;28;20091;-77
2022/05/20 04:07:49;;;;;;;54.75;38.55;;;;;;;;;;4974301;28;20495;-77
2022/05/20 04:10:16;;;;;;;55.28;38.50;;;;;;;;;;4974420;28;20053;-79
2022/05/20 04:12:43;;;;;;;57.63;40.15;;;;;;;;;;4974308;28;20059;-78
2022/05/20 04:15:11;;;;;;;54.85;39.45;;;;;;;;;;4975568;28;20133;-78
2022/05/20 04:17:37;;;;;;;52.92;37.25;;;;;;;;;;4976353;28;20141;-79
2022/05/20 04:20:05;;;;;;;57.75;40.90;;;;;;;;;;4977857;28;20133;-80
2022/05/20 04:22:32;;;;;;;57.60;40.38;;;;;;;;;;4975583;28;20097;-79
2022/05/20 04:24:58;;;;;;;49.97;40.35;;;;;;;;;;4976884;28;20133;-80
2022/05/20 04:27:27;;;;;;;57.75;41.03;;;;;;;;;;4976895;28;20484;-79
2022/05/20 04:29:54;;;;;;;52.67;39.20;;;;;;;;;;4975232;28;20054;-78
2022/05/20 04:32:20;;;;;;;54.97;40.58;;;;;;;;;;4976305;28;20569;-79
2022/05/20 04:34:47;;;;;;;55.10;41.13;;;;;;;;;;4976912;28;20692;-78
2022/05/20 04:37:14;;;;;;;60.17;40.25;;;;;;;;;;4977709;28;20142;-79
2022/05/20 04:39:40;;;;;;;56.90;41.08;;;;;;;;;;4976526;28;20051;-80
2022/05/20 04:47:36;;;;;;;57.28;40.60;;;;;;;;;;4976890;28;20532;-79
2022/05/20 04:50:04;;;;;;;55.00;40.50;;;;;;;;;;4975598;28;20134;-80
2022/05/20 04:52:30;;;;;;;55.28;40.42;;;;;;;;;;4974967;28;20126;-79
2022/05/20 04:54:55;;;;;;;57.65;41.97;;;;;;;;;;4975208;28;20051;-80
2022/05/20 04:57:26;;;;;;;55.30;40.08;;;;;;;;;;4974768;28;20138;-79
2022/05/20 04:59:57;;;;;;;50.70;39.58;;;;;;;;;;4974847;28;20051;-78
2022/05/20 05:02:24;;;;;;;52.42;39.97;;;;;;;;;;4976590;28;20063;-79
2022/05/20 05:04:50;;;;;;;53.85;40.38;;;;;;;;;;4974572;28;20464;-79
2022/05/20 05:07:17;;;;;;;53.60;39.05;;;;;;;;;;4976437;28;20461;-80
2022/05/20 05:09:44;;;;;;;57.95;40.78;;;;;;;;;;4977161;28;20137;-79
2022/05/20 05:12:12;;;;;;;54.78;40.95;;;;;;;;;;4977587;28;20070;-80
2022/05/20 05:14:39;;;;;;;55.08;39.78;;;;;;;;;;4981075;28;20133;-79
2022/05/20 05:17:08;;;;;;;52.67;40.40;;;;;;;;;;4977832;28;20089;-80
2022/05/20 05:19:35;;;;;;;56.50;40.63;;;;;;;;;;4977842;28;20051;-79
2022/05/20 05:22:01;;;;;;;53.63;38.47;;;;;;;;;;4978729;28;20133;-79
2022/05/20 05:24:28;;;;;;;54.60;39.30;;;;;;;;;;4976971;28;20061;-78
2022/05/20 05:26:54;;;;;;;51.28;38.95;;;;;;;;;;4976634;28;20093;-79
2022/05/20 05:29:20;;;;;;;50.17;37.83;;;;;;;;;;4976946;28;20086;-78
2022/05/20 05:31:48;;;;;;;48.95;37.63;;;;;;;;;;4976515;28;20046;-77
2022/05/20 05:34:16;;;;;;;50.80;37.08;;;;;;;;;;4976537;28;20055;-77
2022/05/20 05:36:43;;;;;;;49.67;37.92;;;;;;;;;;4974618;28;20186;-79
2022/05/20 05:39:09;;;;;;;51.22;36.78;;;;;;;;;;4973622;28;20425;-78
2022/05/20 05:41:35;;;;;;;49.83;37.55;;;;;;;;;;4973838;28;20129;-78
2022/05/20 05:44:03;;;;;;;49.88;37.20;;;;;;;;;;4973895;28;20066;-79
2022/05/20 05:46:30;;;;;;;51.85;35.80;;;;;;;;;;4972778;28;20090;-79
2022/05/20 05:48:56;;;;;;;47.55;35.88;;;;;;;;;;4972869;28;20054;-80
2022/05/20 05:51:24;;;;;;;41.15;32.80;;;;;;;;;;4977431;28;20079;-78
2022/05/20 05:53:50;;;;;;;42.42;34.17;;;;;;;;;;4975953;28;20137;-79
2022/05/20 05:56:17;;;;;;;39.03;33.05;;;;;;;;;;4978692;28;20146;-81
2022/05/20 05:58:43;;;;;;;43.45;32.30;;;;;;;;;;4982987;28;20113;-78
2022/05/20 06:01:10;;;;;;;48.97;33.92;;;;;;;;;;4979095;28;20129;-79
2022/05/20 06:03:36;;;;;;;43.35;33.08;;;;;;;;;;4983677;28;20046;-79
2022/05/20 06:06:03;;;;;;;41.63;33.20;;;;;;;;;;4986402;28;20085;-78
2022/05/20 06:08:31;;;;;;;43.05;32.17;;;;;;;;;;4980126;28;20129;-81
2022/05/20 06:10:57;;;;;;;40.80;31.58;;;;;;;;;;4978624;28;20422;-79
2022/05/20 06:13:24;;;;;;;38.75;31.15;;;;;;;;;;4977218;28;20133;-80
2022/05/20 06:15:51;;;;;;;42.63;33.00;;;;;;;;;;4977240;28;20055;-80
2022/05/20 06:18:18;;;;;;;40.08;30.80;;;;;;;;;;4977425;28;20078;-79
2022/05/20 06:20:44;;;;;;;40.33;31.77;;;;;;;;;;4978473;28;20074;-79
2022/05/20 06:23:14;;;;;;;43.30;33.42;;;;;;;;;;4975325;28;20857;-78
2022/05/20 06:25:42;;;;;;;40.90;32.35;;;;;;;;;;4957932;29;20082;-80
2022/05/20 06:28:16;;;;;;;42.85;33.67;;;;;;;;;;4964817;28;20444;-83
2022/05/20 06:30:43;;;;;;;40.47;32.38;;;;;;;;;;4978892;28;20421;-82
2022/05/20 06:33:12;;;;;;;40.85;32.75;;;;;;;;;;4976111;28;20405;-81
2022/05/20 06:41:08;;;;;;;38.67;33.22;;;;;;;;;;4955162;28;20057;-80
2022/05/20 06:43:35;;;;;;;42.35;33.55;;;;;;;;;;4927747;28;20158;-80
2022/05/20 06:46:04;;;;;;;37.80;31.75;;;;;;;;;;4961909;29;20087;-80
2022/05/20 06:48:38;;;;;;;42.95;33.35;;;;;;;;;;4963797;29;20055;-80
2022/05/20 06:51:05;;;;;;;40.40;32.20;;;;;;;;;;4957971;29;20101;-80
2022/05/20 06:53:31;;;;;;;38.72;32.55;;;;;;;;;;4940417;29;20115;-79
2022/05/20 06:55:57;;;;;;;41.20;30.67;;;;;;;;;;4943267;29;20142;-80
2022/05/20 06:58:25;;;;;;;43.13;33.05;;;;;;;;;;4943844;29;20048;-79
2022/05/20 07:00:52;;;;;;;39.88;32.33;;;;;;;;;;4943639;29;20074;-83
2022/05/20 07:03:20;;;;;;;39.90;32.80;;;;;;;;;;4950490;29;20058;-80
2022/05/20 07:05:46;;;;;;;43.08;34.65;;;;;;;;;;4951249;29;20055;-77
2022/05/20 07:08:13;;;;;;;43.42;33.80;;;;;;;;;;4939943;29;20059;-79
2022/05/20 07:10:40;;;;;;;43.97;33.70;;;;;;;;;;4939692;29;20059;-79
2022/05/20 07:13:07;;;;;;;41.67;32.17;;;;;;;;;;4941037;29;20051;-79
2022/05/20 07:15:35;;;;;;;42.55;33.28;;;;;;;;;;4940377;29;20056;-80
2022/05/20 07:18:01;;;;;;;41.28;33.40;;;;;;;;;;4940353;29;20107;-81
2022/05/20 07:20:27;;;;;;;42.22;32.97;;;;;;;;;;4941565;29;20075;-79
2022/05/20 07:22:54;;;;;;;41.30;32.00;;;;;;;;;;4938402;29;20808;-79
2022/05/20 07:25:20;;;;;;;41.72;33.22;;;;;;;;;;4939733;29;20140;-81
2022/05/20 07:27:50;;;;;;;36.95;31.90;;;;;;;;;;4937552;29;20134;-80
2022/05/20 07:30:19;;;;;;;37.08;30.20;;;;;;;;;;4936766;29;20051;-80
2022/05/20 07:32:49;;;;;;;39.60;31.35;;;;;;;;;;4939367;29;20122;-79
2022/05/20 07:35:17;;;;;;;44.63;34.28;;;;;;;;;;4937829;29;20837;-79
2022/05/20 07:37:44;;;;;;;39.35;33.05;;;;;;;;;;4939636;29;20055;-80
2022/05/20 07:40:12;;;;;;;40.30;33.17;;;;;;;;;;4940302;29;20052;-79
2022/05/20 07:42:38;;;;;;;45.65;36.42;;;;;;;;;;4935707;29;20459;-79
2022/05/20 07:45:05;;;;;;;45.83;37.05;;;;;;;;;;4938778;29;20056;-79
2022/05/20 07:47:31;;;;;;;47.05;40.08;;;;;;;;;;4937321;29;20048;-81
2022/05/20 07:50:00;;;;;;;54.30;42.50;;;;;;;;;;4938048;29;20059;-80
2022/05/20 07:55:11;;;;;;;55.83;44.30;;;;;;;;;;4939651;29;20065;-80
2022/05/20 07:57:40;;;;;;;54.95;45.50;;;;;;;;;;4940820;29;20083;-80
2022/05/20 08:00:09;;;;;;;55.17;44.88;;;;;;;;;;4942208;29;20062;-78
2022/05/20 08:02:36;;;;;;;50.75;42.45;;;;;;;;;;4936609;29;20075;-79
2022/05/20 08:05:04;;;;;;;50.00;41.38;;;;;;;;;;4942835;29;20065;-80
2022/05/20 08:07:33;;;;;;;50.50;40.28;;;;;;;;;;4939549;29;20054;-79
2022/05/20 08:10:00;;;;;;;43.78;36.75;;;;;;;;;;4938646;29;20533;-81
2022/05/20 08:12:26;;;;;;;51.80;37.25;;;;;;;;;;4939722;29;20139;-80
2022/05/20 08:14:52;;;;;;;45.75;36.90;;;;;;;;;;4938755;29;20078;-79
2022/05/20 08:17:20;;;;;;;45.08;36.03;;;;;;;;;;4939973;29;20087;-79
2022/05/20 08:19:47;;;;;;;44.60;36.47;;;;;;;;;;4940822;29;20107;-79
2022/05/20 08:22:22;;;;;;;47.22;36.90;;;;;;;;;;4940720;29;20083;-80
2022/05/20 08:24:48;;;;;;;43.42;34.15;;;;;;;;;;4937890;29;20048;-79
2022/05/20 08:27:15;;;;;;;43.08;35.42;;;;;;;;;;4937605;29;20107;-78
2022/05/20 08:29:41;;;;;;;44.83;34.53;;;;;;;;;;4935742;29;20062;-78
2022/05/20 08:32:15;;;;;;;48.47;35.97;;;;;;;;;;4958850;23;20082;-80
2022/05/20 08:34:42;;;;;;;47.78;35.72;;;;;;;;;;4964702;28;20043;-82
2022/05/20 08:37:08;;;;;;;42.88;36.22;;;;;;;;;;4971129;28;20054;-80
2022/05/20 08:39:36;;;;;;;41.55;34.53;;;;;;;;;;4975266;28;20054;-79
2022/05/20 08:42:04;;;;;;;39.78;33.17;;;;;;;;;;4974626;28;20094;-80
2022/05/20 08:44:31;;;;;;;41.47;33.30;;;;;;;;;;4983784;28;20105;-81
2022/05/20 08:47:07;;;;;;;41.72;34.50;;;;;;;;;;4965894;28;20130;-80
2022/05/20 08:49:33;;;;;;;41.42;32.65;;;;;;;;;;4961541;28;20109;-80
2022/05/20 08:55:01;;;;;;;38.08;33.25;;;;;;;;;;4960866;28;20058;-80
2022/05/20 08:57:29;;;;;;;40.83;32.05;;;;;;;;;;4967046;28;20130;-81
2022/05/20 08:59:56;;;;;;;38.80;31.15;;;;;;;;;;4959599;28;20062;-81
2022/05/20 09:02:22;;;;;;;35.15;29.90;;;;;;;;;;4946883;29;20086;-81
2022/05/20 09:04:49;;;;;;;35.72;28.80;;;;;;;;;;4947592;29;20079;-81
2022/05/20 09:07:16;;;;;;;39.25;31.27;;;;;;;;;;4941815;29;20075;-79
2022/05/20 09:09:45;;;;;;;36.45;30.08;;;;;;;;;;4940044;29;20075;-80
2022/05/20 09:12:24;;;;;;;36.95;29.25;;;;;;;;;;4936560;29;20102;-79
2022/05/20 09:17:42;;;;;;;35.65;29.00;;;;;;;;;;4952544;29;20054;-81
2022/05/20 09:20:14;;;;;;;32.70;27.42;;;;;;;;;;4938382;29;20139;-81
2022/05/20 09:22:41;;;;;;;33.80;27.70;;;;;;;;;;4939147;29;20063;-81
2022/05/20 09:25:20;;;;;;;35.35;28.88;;;;;;;;;;4938821;29;20062;-81
2022/05/20 09:27:50;;;;;;;34.20;28.67;;;;;;;;;;4939027;29;20058;-80
2022/05/20 09:30:21;;;;;;;37.28;27.65;;;;;;;;;;4938777;29;20056;-80
2022/05/20 09:32:52;;;;;;;32.53;26.85;;;;;;;;;;4939534;29;20051;-81
2022/05/20 09:35:22;;;;;;;35.70;28.65;;;;;;;;;;4938588;29;20532;-79
2022/05/20 09:37:49;;;;;;;30.38;26.30;;;;;;;;;;4941554;29;20107;-79
2022/05/20 09:40:19;;;;;;;30.98;27.02;;;;;;;;;;4940308;29;20061;-80
2022/05/20 09:42:58;;;;;;;31.30;24.70;;;;;;;;;;4939556;29;20542;-81
2022/05/20 09:45:25;;;;;;;33.42;26.15;;;;;;;;;;4940310;29;20061;-80
2022/05/20 09:47:53;;;;;;;33.13;25.70;;;;;;;;;;4942924;29;20059;-79
2022/05/20 09:50:24;;;;;;;29.13;25.42;;;;;;;;;;4944989;29;20087;-81
2022/05/20 09:52:52;;;;;;;30.83;23.35;;;;;;;;;;4940417;29;20139;-81
2022/05/20 09:55:24;;;;;;;28.17;23.80;;;;;;;;;;4939942;29;20059;-80
2022/05/20 09:57:54;;;;;;;31.38;24.33;;;;;;;;;;4938334;29;20055;-81
2022/05/20 10:00:26;;;;;;;32.60;24.55;;;;;;;;;;4939626;29;20059;-81
2022/05/20 10:02:55;;;;;;;29.83;23.48;;;;;;;;;;4940346;29;20146;-82
2022/05/20 10:05:27;;;;;;;29.63;21.90;;;;;;;;;;4934255;29;20082;-82
2022/05/20 10:08:00;;;;;;;26.60;22.93;;;;;;;;;;4947295;29;20102;-83
2022/05/20 10:10:39;;;;;;;32.65;23.33;;;;;;;;;;4949951;29;20107;-79
2022/05/20 10:13:08;;;;;;;28.38;21.85;;;;;;;;;;4932928;29;20107;-82
2022/05/20 10:15:39;;;;;;;28.38;22.05;;;;;;;;;;4939230;29;20245;-81
2022/05/20 10:18:11;;;;;;;31.33;23.95;;;;;;;;;;4919254;29;20052;-80
2022/05/20 10:20:40;;;;;;;26.05;20.17;;;;;;;;;;4944753;29;20134;-80
2022/05/20 10:23:10;;;;;;;25.80;17.55;;;;;;;;;;4941383;29;20082;-80
2022/05/20 10:25:39;;;;;;;20.20;17.10;;;;;;;;;;4942518;29;20111;-81
2022/05/20 10:28:07;;;;;;;21.50;15.73;;;;;;;;;;4943150;29;20094;-81
2022/05/20 10:33:28;;;;;;;22.38;16.70;;;;;;;;;;4943527;29;20110;-82
2022/05/20 10:36:06;;;;;;;19.58;16.80;;;;;;;;;;4938010;29;20048;-81
2022/05/20 10:38:48;;;;;;;17.67;15.55;;;;;;;;;;4946115;29;20075;-81
2022/05/20 10:41:20;;;;;;;19.08;14.45;;;;;;;;;;4943344;29;20047;-81
2022/05/20 10:58:40;;;;;;;14.45;12.40;;;;;;;;;;4828572;29;20650;-80
2022/05/20 11:10:53;;;;;;;15.93;12.48;;;;;;;;;;4922121;29;20056;-80
2022/05/20 11:16:47;;;;;;;15.50;12.80;;;;;;;;;;4990860;28;20059;-82
2022/05/20 11:19:36;;;;;;;15.35;12.77;;;;;;;;;;4999456;28;20054;-80
2022/05/20 11:22:23;;;;;;;14.63;13.05;;;;;;;;;;5000306;28;20455;-82
2022/05/20 11:25:19;;;;;;;15.18;12.40;;;;;;;;;;4999673;28;20058;-80
2022/05/20 11:28:10;;;;;;;14.98;13.15;;;;;;;;;;4961240;29;20235;-81
2022/05/20 11:30:50;;;;;;;14.55;13.05;;;;;;;;;;4973587;28;20593;-80
2022/05/20 11:33:44;;;;;;;16.95;12.95;;;;;;;;;;4993713;28;20055;-82
2022/05/20 11:39:53;;;;;;;16.20;13.43;;;;;;;;;;4897350;29;20048;-84
2022/05/20 11:42:36;;;;;;;14.60;13.10;;;;;;;;;;4898662;29;20084;-83
2022/05/20 11:51:23;;;;;;;14.35;11.95;;;;;;;;;;5004011;28;19931;-80
2022/05/20 11:57:14;;;;;;;15.48;11.73;;;;;;;;;;5000838;28;20120;-80
2022/05/20 12:27:57;;;;;;;15.57;13.55;;;;;;;;;;4812082;29;20604;-78
2022/05/20 12:30:48;;;;;;;17.27;12.55;;;;;;;;;;4891419;29;20069;-78
2022/05/20 12:36:55;;;;;;;17.83;14.93;;;;;;;;;;4981142;28;20056;-78
2022/05/20 12:42:41;;;;;;;31.55;17.65;;;;;;;;;;4963235;28;20138;-82
2022/05/20 12:51:02;;;;;;;25.25;20.58;;;;;;;;;;4992189;28;20531;-81
2022/05/20 12:53:34;;;;;;;28.48;19.38;;;;;;;;;;5004061;28;20045;-82
2022/05/20 12:56:02;;;;;;;27.83;19.67;;;;;;;;;;5000155;28;20138;-82
2022/05/20 12:58:34;;;;;;;20.00;17.88;;;;;;;;;;5003432;28;20041;-83
2022/05/20 13:01:02;;;;;;;22.58;19.05;;;;;;;;;;5000927;28;20077;-82
2022/05/20 13:03:35;;;;;;;23.05;19.88;;;;;;;;;;4997996;28;20046;-82
2022/05/20 13:06:03;;;;;;;22.27;19.13;;;;;;;;;;4998651;28;20505;-82
2022/05/20 13:08:30;;;;;;;25.65;19.85;;;;;;;;;;5007251;28;20066;-82
2022/05/20 13:11:06;;;;;;;18.95;16.63;;;;;;;;;;5007807;28;20051;-82
2022/05/20 13:13:34;;;;;;;18.80;14.52;;;;;;;;;;5008255;28;20078;-83
2022/05/20 13:16:02;;;;;;;22.10;15.77;;;;;;;;;;5008757;28;20051;-84
2022/05/20 13:18:30;;;;;;;17.83;14.05;;;;;;;;;;5002114;28;20047;-81
2022/05/20 13:20:57;;;;;;;17.13;12.07;;;;;;;;;;5006773;28;20054;-83
2022/05/20 13:23:28;;;;;;;18.05;12.75;;;;;;;;;;5005582;28;20261;-82
2022/05/20 13:25:54;;;;;;;15.45;12.60;;;;;;;;;;5005341;28;20053;-82
2022/05/20 13:28:22;;;;;;;14.88;11.23;;;;;;;;;;5002212;28;20046;-82
2022/05/20 13:30:51;;;;;;;18.80;11.65;;;;;;;;;;5009747;28;20065;-82
2022/05/20 13:33:18;;;;;;;14.98;11.48;;;;;;;;;;5008826;28;20057;-82
2022/05/20 13:35:46;;;;;;;12.95;11.30;;;;;;;;;;5010671;28;20042;-83
2022/05/20 13:38:13;;;;;;;13.30;11.15;;;;;;;;;;5005212;28;20046;-83
2022/05/20 13:40:40;;;;;;;12.55;11.30;;;;;;;;;;4996855;28;20058;-79
2022/05/20 13:43:08;;;;;;;12.75;11.07;;;;;;;;;;4988627;28;20133;-79
2022/05/20 13:51:07;;;;;;;12.00;10.40;;;;;;;;;;4991684;28;20147;-81
2022/05/20 13:53:35;;;;;;;15.05;10.57;;;;;;;;;;4992706;28;20043;-81
2022/05/20 13:56:02;;;;;;;15.25;10.77;;;;;;;;;;4994204;28;20042;-81
2022/05/20 13:58:29;;;;;;;14.85;9.65;;;;;;;;;;5004938;28;20074;-79
2022/05/20 14:00:59;;;;;;;14.52;9.82;;;;;;;;;;5004765;28;20066;-81
2022/05/20 14:03:30;;;;;;;12.23;10.18;;;;;;;;;;5005815;28;20042;-80
2022/05/20 14:05:58;;;;;;;10.82;9.70;;;;;;;;;;5005947;28;20261;-80
2022/05/20 14:08:25;;;;;;;14.40;9.90;;;;;;;;;;5004794;28;20424;-81
2022/05/20 14:10:52;;;;;;;11.52;10.15;;;;;;;;;;5006674;28;20137;-80
2022/05/20 14:13:24;;;;;;;13.68;10.23;;;;;;;;;;5003810;28;20050;-79
2022/05/20 14:15:53;;;;;;;11.65;10.02;;;;;;;;;;5008979;28;20050;-80
2022/05/20 14:18:23;;;;;;;10.68;9.57;;;;;;;;;;5014367;28;20110;-82
2022/05/20 14:20:55;;;;;;;23.17;8.77;;;;;;;;;;5014563;28;20061;-82
2022/05/20 14:23:22;;;;;;;10.23;7.80;;;;;;;;;;5013614;28;20106;-82
2022/05/20 14:25:55;;;;;;;10.52;8.13;;;;;;;;;;5010106;28;20046;-80
2022/05/20 14:28:25;;;;;;;10.00;7.82;;;;;;;;;;5009631;28;20050;-82
2022/05/20 14:30:53;;;;;;;9.85;8.30;;;;;;;;;;5002961;28;20374;-83
2022/05/20 14:33:27;;;;;;;13.02;8.93;;;;;;;;;;5012974;23;20138;-83
2022/05/20 14:35:56;;;;;;;11.07;8.68;;;;;;;;;;4981159;28;20050;-82
2022/05/20 14:38:24;;;;;;;14.40;8.73;;;;;;;;;;4981482;28;20525;-83
2022/05/20 14:40:51;;;;;;;11.10;8.30;;;;;;;;;;4980445;28;20497;-82
2022/05/20 14:43:21;;;;;;;12.18;8.15;;;;;;;;;;4987514;28;20051;-83
2022/05/20 14:45:51;;;;;;;19.45;10.45;;;;;;;;;;4997472;28;20069;-83
2022/05/20 14:48:19;;;;;;;15.10;10.10;;;;;;;;;;4985254;28;20625;-82
2022/05/20 14:50:47;;;;;;;12.98;9.35;;;;;;;;;;4994312;28;20082;-79
2022/05/20 14:53:19;;;;;;;11.88;8.07;;;;;;;;;;4993330;28;20096;-82
2022/05/20 14:55:48;;;;;;;11.27;8.38;;;;;;;;;;4985579;28;20054;-82
2022/05/20 14:58:16;;;;;;;12.20;9.13;;;;;;;;;;4984230;28;20054;-82
2022/05/20 15:00:52;;;;;;;13.93;7.75;;;;;;;;;;4993252;28;20058;-82
2022/05/20 15:03:18;;;;;;;10.32;7.47;;;;;;;;;;4992205;28;20051;-82
2022/05/20 15:05:45;;;;;;;12.10;6.82;;;;;;;;;;4992132;28;20220;-82
2022/05/20 15:08:12;;;;;;;15.95;7.63;;;;;;;;;;4998239;28;20081;-83
2022/05/20 15:10:41;;;;;;;10.20;7.40;;;;;;;;;;4987800;28;20130;-82
2022/05/20 15:13:07;;;;;;;15.32;7.00;;;;;;;;;;4995499;28;20367;-81
2022/05/20 15:15:34;;;;;;;9.73;6.90;;;;;;;;;;4987903;28;20473;-82
2022/05/20 15:18:03;;;;;;;7.53;6.70;;;;;;;;;;4997902;28;20053;-80
2022/05/20 15:20:30;;;;;;;10.35;7.22;;;;;;;;;;4986686;28;20062;-84
2022/05/20 15:22:57;;;;;;;7.30;6.50;;;;;;;;;;4992459;28;20078;-84
2022/05/20 15:25:24;;;;;;;9.93;6.68;;;;;;;;;;4981634;28;20078;-82
2022/05/20 15:27:52;;;;;;;8.90;6.18;;;;;;;;;;4981148;28;20082;-81
2022/05/20 15:30:18;;;;;;;8.07;5.90;;;;;;;;;;5000741;28;20060;-84
2022/05/20 15:35:28;;;;;;;10.10;6.93;;;;;;;;;;4988086;28;20073;-83
2022/05/20 15:37:54;;;;;;;9.48;6.35;;;;;;;;;;4996934;28;20122;-83
2022/05/20 15:40:24;;;;;;;9.32;7.03;;;;;;;;;;4987141;28;20078;-83
2022/05/20 15:42:52;;;;;;;7.75;6.45;;;;;;;;;;4997465;28;20081;-82
2022/05/20 15:45:20;;;;;;;8.32;6.20;;;;;;;;;;4997019;28;20138;-81
2022/05/20 15:47:46;;;;;;;11.05;7.20;;;;;;;;;;4991813;28;20511;-81
2022/05/20 15:50:13;;;;;;;10.60;6.93;;;;;;;;;;5003543;28;20062;-81
2022/05/20 15:52:42;;;;;;;12.50;7.82;;;;;;;;;;5000435;28;20077;-82
2022/05/20 15:55:11;;;;;;;11.98;7.18;;;;;;;;;;4995044;28;20069;-81
2022/05/20 15:57:39;;;;;;;12.32;7.30;;;;;;;;;;4995049;28;20055;-82
2022/05/20 16:00:09;;;;;;;19.00;8.68;;;;;;;;;;4990971;28;20057;-82
2022/05/20 16:02:36;;;;;;;13.23;7.93;;;;;;;;;;4984259;28;20057;-80
2022/05/20 16:05:18;;;;;;;10.45;7.70;;;;;;;;;;4988410;28;20055;-79
2022/05/20 16:07:45;;;;;;;10.98;8.27;;;;;;;;;;4995270;28;20078;-80
2022/05/20 16:10:11;;;;;;;10.38;7.95;;;;;;;;;;4983252;28;20050;-82
2022/05/20 16:12:38;;;;;;;14.50;9.60;;;;;;;;;;5003399;28;20042;-83
2022/05/20 16:15:05;;;;;;;10.63;7.80;;;;;;;;;;5000687;28;20055;-81
2022/05/20 16:17:33;;;;;;;14.10;6.55;;;;;;;;;;4992076;28;20035;-81
2022/05/20 16:19:59;;;;;;;8.45;5.72;;;;;;;;;;5000138;28;20042;-81
2022/05/20 16:22:28;;;;;;;7.55;5.25;;;;;;;;;;5009229;28;20065;-80
2022/05/20 16:24:54;;;;;;;7.72;4.95;;;;;;;;;;4988377;28;20061;-81
2022/05/20 16:27:21;;;;;;;7.93;4.63;;;;;;;;;;4981960;28;20085;-79
2022/05/20 16:29:47;;;;;;;6.70;4.90;;;;;;;;;;4979546;28;20781;-80
2022/05/20 16:32:14;;;;;;;6.43;4.70;;;;;;;;;;4984070;28;20133;-82